Time;durP1;ratioP1;P1;durP2;ratioP2;P2;SDS_P1;SDS_P2;PMS_P1;PMS_P2;Temp;Humidity;BMP_temperature;BMP_pressure;BME280_temperature;BME280_humidity;BME280_pressure;Samples;Min_cycle;Max_cycle;Signal;HPM_P1;HPM_P2
2023/10/27 00:01:49;;;;;;;3.03;0.52;;;13.30;99.90;;;;;;4149565;28;20173;-90
2023/10/27 00:03:49;;;;;;;1.75;0.85;;;13.20;99.90;;;;;;4149231;28;20185;-92
2023/10/27 00:05:50;;;;;;;2.80;1.23;;;13.30;99.90;;;;;;4149253;28;20689;-89
2023/10/27 00:07:51;;;;;;;5.63;1.08;;;13.40;99.90;;;;;;4149161;28;20263;-91
2023/10/27 00:09:52;;;;;;;9.05;1.40;;;13.40;99.90;;;;;;4149281;28;20197;-89
2023/10/27 00:11:53;;;;;;;6.38;1.00;;;13.40;99.90;;;;;;4149065;28;20619;-90
2023/10/27 00:13:54;;;;;;;2.97;0.63;;;13.40;99.90;;;;;;4148177;28;20212;-92
2023/10/27 00:15:55;;;;;;;3.65;0.70;;;13.40;99.90;;;;;;4149302;28;20636;-91
2023/10/27 00:17:58;;;;;;;3.28;1.00;;;13.40;99.90;;;;;;4149043;28;20216;-90
2023/10/27 00:19:58;;;;;;;4.80;1.13;;;13.40;99.90;;;;;;4149359;28;20169;-91
2023/10/27 00:21:59;;;;;;;1.02;0.35;;;13.30;99.90;;;;;;4149347;28;20180;-91
2023/10/27 00:24:00;;;;;;;3.85;0.52;;;13.40;99.90;;;;;;4149265;28;20679;-92
2023/10/27 00:26:01;;;;;;;1.55;0.40;;;13.40;99.90;;;;;;4149352;28;20259;-90
2023/10/27 00:28:02;;;;;;;1.67;0.55;;;13.40;99.90;;;;;;4149154;28;20203;-90
2023/10/27 00:30:03;;;;;;;7.80;1.02;;;13.50;99.90;;;;;;4148785;28;20633;-90
2023/10/27 00:32:04;;;;;;;4.38;1.08;;;13.60;99.90;;;;;;4148973;28;20217;-91
2023/10/27 00:34:05;;;;;;;1.38;0.45;;;13.60;99.90;;;;;;4148601;28;20172;-89
2023/10/27 00:36:06;;;;;;;4.57;1.23;;;13.50;99.90;;;;;;4148700;28;20265;-90
2023/10/27 00:38:06;;;;;;;2.20;0.55;;;13.50;99.90;;;;;;4148783;28;20284;-90
2023/10/27 00:40:08;;;;;;;1.88;0.60;;;13.50;99.90;;;;;;4164819;28;20184;-92
2023/10/27 00:42:08;;;;;;;4.38;0.77;;;13.60;99.90;;;;;;4148548;28;20660;-90
2023/10/27 00:44:09;;;;;;;1.92;0.63;;;13.50;99.90;;;;;;4165053;28;20168;-90
2023/10/27 00:46:10;;;;;;;1.30;0.77;;;13.60;99.90;;;;;;4148742;28;20176;-90
2023/10/27 00:48:11;;;;;;;5.38;0.57;;;13.40;99.90;;;;;;4148829;28;20192;-90
2023/10/27 00:50:12;;;;;;;1.75;0.70;;;13.30;99.90;;;;;;4165215;28;20652;-89
2023/10/27 00:52:14;;;;;;;2.15;0.75;;;13.20;99.90;;;;;;4148424;28;20719;-90
2023/10/27 00:54:17;;;;;;;2.28;0.63;;;13.20;99.90;;;;;;4148632;28;20173;-91
2023/10/27 00:56:18;;;;;;;7.28;1.15;;;13.20;99.90;;;;;;4148794;28;20247;-91
2023/10/27 00:58:21;;;;;;;4.07;0.68;;;13.20;99.90;;;;;;4148644;28;20288;-89
2023/10/27 01:00:22;;;;;;;3.47;0.95;;;13.30;99.90;;;;;;4148482;28;20183;-90
2023/10/27 01:02:23;;;;;;;3.50;1.00;;;13.40;99.90;;;;;;4165047;28;20172;-91
2023/10/27 01:04:24;;;;;;;2.15;0.55;;;13.20;99.90;;;;;;4148543;28;20181;-91
2023/10/27 01:06:25;;;;;;;2.85;0.60;;;13.30;99.90;;;;;;4148538;28;20169;-91
2023/10/27 01:08:26;;;;;;;0.45;0.30;;;13.20;99.90;;;;;;4148402;28;20641;-90
2023/10/27 01:10:27;;;;;;;6.50;0.60;;;13.30;99.90;;;;;;4164770;28;20168;-91
2023/10/27 01:12:28;;;;;;;3.25;0.60;;;13.20;99.90;;;;;;4148316;28;20217;-90
2023/10/27 01:14:29;;;;;;;2.03;0.47;;;13.20;99.90;;;;;;4164666;28;20218;-91
2023/10/27 01:16:30;;;;;;;1.40;0.30;;;13.20;99.90;;;;;;4148293;28;20180;-91
2023/10/27 01:18:30;;;;;;;2.45;0.77;;;13.30;99.90;;;;;;4148138;28;20180;-90
2023/10/27 01:20:31;;;;;;;1.27;0.50;;;13.30;99.90;;;;;;4148162;28;20609;-91
2023/10/27 01:22:39;;;;;;;2.75;0.75;;;13.40;99.90;;;;;;4148227;28;20212;-91
2023/10/27 01:24:40;;;;;;;3.47;1.00;;;13.40;99.90;;;;;;4164641;28;20628;-91
2023/10/27 01:26:40;;;;;;;3.42;0.40;;;13.20;99.90;;;;;;4164224;28;20210;-91
2023/10/27 01:28:41;;;;;;;2.83;0.80;;;13.30;99.90;;;;;;4148183;28;20176;-90
2023/10/27 01:30:42;;;;;;;1.58;0.50;;;13.30;99.90;;;;;;4164427;28;20168;-90
2023/10/27 01:32:44;;;;;;;4.70;1.17;;;13.40;99.90;;;;;;4148167;28;20743;-91
2023/10/27 01:34:45;;;;;;;1.95;0.60;;;13.30;99.90;;;;;;4148237;28;20161;-91
2023/10/27 01:36:46;;;;;;;3.30;0.95;;;13.30;99.90;;;;;;4148275;28;20181;-92
2023/10/27 01:38:47;;;;;;;1.63;0.40;;;13.30;99.90;;;;;;4148434;28;20173;-90
2023/10/27 01:40:47;;;;;;;4.40;0.88;;;13.20;99.90;;;;;;4148285;28;20625;-91
2023/10/27 01:42:48;;;;;;;2.00;0.40;;;13.20;99.90;;;;;;4148223;28;20172;-90
2023/10/27 01:44:50;;;;;;;4.10;1.00;;;13.10;99.90;;;;;;4148162;28;20205;-91
2023/10/27 01:46:50;;;;;;;2.47;0.57;;;13.20;99.90;;;;;;4164585;28;20303;-92
2023/10/27 01:48:52;;;;;;;1.10;0.52;;;13.20;99.90;;;;;;4148126;28;20180;-90
2023/10/27 01:50:55;;;;;;;2.33;0.70;;;13.20;99.90;;;;;;4148319;28;20637;-91
2023/10/27 01:52:55;;;;;;;2.05;0.80;;;13.30;99.90;;;;;;4147978;28;20215;-90
2023/10/27 01:54:57;;;;;;;4.85;1.08;;;13.40;99.90;;;;;;4148105;28;20173;-90
2023/10/27 01:56:58;;;;;;;0.85;0.50;;;13.30;99.90;;;;;;4164435;28;20200;-90
2023/10/27 01:58:59;;;;;;;5.47;1.35;;;13.20;99.90;;;;;;4164458;28;20264;-90
2023/10/27 02:01:00;;;;;;;8.43;0.77;;;13.10;99.90;;;;;;4148012;28;20183;-90
2023/10/27 02:03:01;;;;;;;4.18;1.23;;;13.20;99.90;;;;;;4148030;28;20173;-90
2023/10/27 02:05:03;;;;;;;3.85;2.40;;;13.30;99.90;;;;;;4164407;28;20612;-91
2023/10/27 02:07:04;;;;;;;14.60;3.95;;;13.30;99.90;;;;;;4148028;28;20676;-90
2023/10/27 02:09:05;;;;;;;41.10;19.65;;;13.30;99.90;;;;;;4164274;28;20184;-90
2023/10/27 02:11:06;;;;;;;2.90;1.98;;;13.20;99.90;;;;;;4148040;28;20265;-90
2023/10/27 02:13:06;;;;;;;5.43;0.93;;;13.30;99.90;;;;;;4147781;28;20244;-91
2023/10/27 02:15:08;;;;;;;2.30;0.55;;;13.30;99.90;;;;;;4147836;28;20180;-92
2023/10/27 02:17:10;;;;;;;1.70;0.70;;;13.20;99.90;;;;;;4148054;28;20263;-91
2023/10/27 02:19:13;;;;;;;10.95;5.97;;;13.30;99.90;;;;;;4147891;28;20211;-90
2023/10/27 02:21:13;;;;;;;4.20;1.67;;;13.30;99.90;;;;;;4147842;28;20177;-90
2023/10/27 02:23:17;;;;;;;5.18;1.80;;;13.10;99.90;;;;;;4147749;28;20165;-92
2023/10/27 02:25:19;;;;;;;2.65;0.90;;;13.10;99.90;;;;;;4147852;28;20177;-91
2023/10/27 02:27:19;;;;;;;3.15;1.02;;;13.20;99.90;;;;;;4164164;28;20195;-90
2023/10/27 02:29:20;;;;;;;9.88;2.47;;;13.20;99.90;;;;;;4147568;28;20180;-90
2023/10/27 02:31:21;;;;;;;4.18;1.77;;;13.10;99.90;;;;;;4164043;28;20259;-90
2023/10/27 02:33:22;;;;;;;7.95;1.50;;;13.10;99.90;;;;;;4147580;28;20236;-91
2023/10/27 02:35:25;;;;;;;5.93;3.22;;;13.00;99.90;;;;;;4147521;28;20169;-90
2023/10/27 02:37:26;;;;;;;2.47;1.42;;;12.90;99.90;;;;;;4148431;28;20290;-91
2023/10/27 02:39:27;;;;;;;6.93;2.10;;;12.90;99.90;;;;;;4167360;28;20168;-90
2023/10/27 02:41:28;;;;;;;5.32;1.42;;;12.90;99.90;;;;;;4150681;28;20191;-91
2023/10/27 02:43:28;;;;;;;2.63;0.93;;;12.90;99.90;;;;;;4167021;28;20266;-90
2023/10/27 02:45:30;;;;;;;3.33;1.60;;;12.80;99.90;;;;;;4167235;28;20537;-92
2023/10/27 02:47:30;;;;;;;2.22;1.20;;;12.80;99.90;;;;;;4150686;28;20192;-90
2023/10/27 02:49:31;;;;;;;2.35;0.50;;;12.70;99.90;;;;;;4167109;28;20247;-90
2023/10/27 02:51:32;;;;;;;2.63;0.52;;;12.60;99.90;;;;;;4150569;28;20200;-90
2023/10/27 02:53:33;;;;;;;2.75;0.30;;;12.50;99.90;;;;;;4150427;28;20181;-91
2023/10/27 02:55:34;;;;;;;1.10;0.47;;;12.50;99.90;;;;;;4166550;28;20620;-90
2023/10/27 02:57:35;;;;;;;3.75;1.10;;;12.50;99.90;;;;;;4150191;28;20657;-91
2023/10/27 02:59:36;;;;;;;13.85;5.97;;;12.50;99.90;;;;;;4150389;28;20208;-90
2023/10/27 03:01:37;;;;;;;1.63;0.75;;;12.50;99.90;;;;;;4150430;28;20181;-90
2023/10/27 03:03:38;;;;;;;2.05;0.45;;;12.60;99.90;;;;;;4166487;28;20239;-90
2023/10/27 03:05:39;;;;;;;0.13;0.10;;;12.60;99.90;;;;;;4166659;28;20187;-90
2023/10/27 03:07:40;;;;;;;2.53;1.20;;;12.70;99.90;;;;;;4150238;28;20195;-89
2023/10/27 03:09:40;;;;;;;0.30;0.25;;;12.60;99.90;;;;;;4166467;28;20231;-89
2023/10/27 03:11:42;;;;;;;1.70;0.75;;;12.60;99.90;;;;;;4149970;28;20290;-90
2023/10/27 03:13:43;;;;;;;12.50;3.58;;;12.40;99.90;;;;;;4150621;28;20193;-90
2023/10/27 03:15:43;;;;;;;3.90;0.90;;;12.40;99.90;;;;;;4166521;28;20673;-90
2023/10/27 03:17:45;;;;;;;1.20;0.55;;;12.40;99.90;;;;;;4149820;28;20196;-90
2023/10/27 03:19:48;;;;;;;4.95;1.17;;;12.30;99.90;;;;;;4166443;28;20203;-90
2023/10/27 03:21:49;;;;;;;16.38;4.10;;;12.30;99.90;;;;;;4182785;28;20179;-91
2023/10/27 03:23:50;;;;;;;25.75;8.02;;;12.40;99.90;;;;;;4165948;28;20583;-90
2023/10/27 03:25:51;;;;;;;2.90;0.40;;;12.40;99.90;;;;;;4167212;28;20175;-92
2023/10/27 03:27:51;;;;;;;1.35;0.73;;;12.50;99.90;;;;;;4149544;28;20556;-90
2023/10/27 03:29:52;;;;;;;1.60;0.30;;;12.50;99.90;;;;;;4166253;28;20172;-90
2023/10/27 03:31:53;;;;;;;0.85;0.55;;;12.50;99.90;;;;;;4166361;28;20286;-90
2023/10/27 03:33:54;;;;;;;0.50;0.30;;;12.40;99.90;;;;;;4166142;28;20180;-91
2023/10/27 03:35:55;;;;;;;0.70;0.40;;;12.40;99.90;;;;;;4149884;28;20161;-91
2023/10/27 03:37:56;;;;;;;0.43;0.38;;;12.40;99.90;;;;;;4149710;28;20197;-90
2023/10/27 03:39:56;;;;;;;5.38;0.55;;;12.50;99.90;;;;;;4149676;28;20267;-91
2023/10/27 03:41:58;;;;;;;0.43;0.22;;;12.60;99.90;;;;;;4149778;28;20644;-89
2023/10/27 03:43:58;;;;;;;0.40;0.35;;;12.60;99.90;;;;;;4149739;28;20205;-92
2023/10/27 03:46:00;;;;;;;4.50;1.27;;;12.60;99.90;;;;;;4149775;28;20267;-90
2023/10/27 03:48:02;;;;;;;0.57;0.50;;;12.50;99.90;;;;;;4149145;28;20335;-91
2023/10/27 03:50:04;;;;;;;1.83;0.50;;;12.40;99.90;;;;;;4149378;28;20235;-89
2023/10/27 03:52:04;;;;;;;4.88;1.02;;;12.30;99.90;;;;;;4149654;28;20208;-91
2023/10/27 03:54:05;;;;;;;0.73;0.40;;;12.40;99.90;;;;;;4166210;28;20172;-90
2023/10/27 03:56:06;;;;;;;1.70;0.93;;;12.30;99.90;;;;;;4149675;28;20176;-90
2023/10/27 03:58:17;;;;;;;0.70;0.50;;;12.40;99.90;;;;;;4149436;28;20224;-90
2023/10/27 04:00:18;;;;;;;0.60;0.50;;;12.40;99.90;;;;;;4149524;28;20172;-90
2023/10/27 04:02:18;;;;;;;2.28;0.60;;;12.40;99.90;;;;;;4149684;28;20184;-91
2023/10/27 04:04:20;;;;;;;1.65;0.82;;;12.30;99.90;;;;;;4165898;28;20168;-92
2023/10/27 04:06:21;;;;;;;0.70;0.38;;;12.30;99.90;;;;;;4149297;28;20295;-90
2023/10/27 04:08:21;;;;;;;1.05;0.40;;;12.40;99.90;;;;;;4149144;28;20255;-90
2023/10/27 04:10:22;;;;;;;0.40;0.40;;;12.40;99.90;;;;;;4149111;28;20164;-91
2023/10/27 04:12:23;;;;;;;0.50;0.40;;;12.50;99.90;;;;;;4149053;28;20208;-91
2023/10/27 04:14:24;;;;;;;1.25;0.30;;;12.40;99.90;;;;;;4165338;28;20192;-91
2023/10/27 04:16:24;;;;;;;7.07;0.93;;;12.40;99.90;;;;;;4149072;28;20169;-90
2023/10/27 04:18:25;;;;;;;0.60;0.35;;;12.50;99.90;;;;;;4165340;28;20192;-90
2023/10/27 04:20:26;;;;;;;1.45;0.55;;;12.50;99.90;;;;;;4148762;28;20224;-89
2023/10/27 04:22:27;;;;;;;0.50;0.30;;;12.50;99.90;;;;;;4149100;28;20557;-91
2023/10/27 04:24:27;;;;;;;4.95;0.50;;;12.50;99.90;;;;;;4165580;28;20176;-90
2023/10/27 04:26:28;;;;;;;1.23;0.30;;;12.50;99.90;;;;;;4149184;28;20177;-91
2023/10/27 04:28:29;;;;;;;1.73;0.63;;;12.50;99.90;;;;;;4165196;28;20196;-90
2023/10/27 04:30:33;;;;;;;1.00;0.50;;;12.50;99.90;;;;;;4148912;28;20177;-91
2023/10/27 04:32:40;;;;;;;1.25;0.68;;;12.60;99.90;;;;;;4149023;28;20276;-92
2023/10/27 04:34:41;;;;;;;0.80;0.38;;;12.70;99.90;;;;;;4148999;28;20323;-91
2023/10/27 04:36:43;;;;;;;2.13;0.55;;;12.70;99.90;;;;;;4165368;28;20174;-90
2023/10/27 04:38:44;;;;;;;1.25;0.30;;;12.70;99.90;;;;;;4148945;28;20169;-90
2023/10/27 04:40:45;;;;;;;1.05;0.30;;;12.70;99.90;;;;;;4148769;28;20168;-92
2023/10/27 04:42:46;;;;;;;0.85;0.40;;;12.60;99.90;;;;;;4148669;28;20192;-90
2023/10/27 04:44:46;;;;;;;1.33;0.73;;;12.60;99.90;;;;;;4165409;28;20259;-91
2023/10/27 04:46:47;;;;;;;1.10;0.60;;;12.60;99.90;;;;;;4148803;28;20183;-90
2023/10/27 04:48:48;;;;;;;0.82;0.45;;;12.60;99.90;;;;;;4148863;28;20165;-91
2023/10/27 04:50:53;;;;;;;0.10;0.10;;;12.70;99.90;;;;;;4165060;28;20176;-91
2023/10/27 04:52:54;;;;;;;0.82;0.50;;;12.60;99.90;;;;;;4148560;28;20205;-91
2023/10/27 04:54:56;;;;;;;1.27;0.50;;;12.70;99.90;;;;;;4148752;28;20196;-90
2023/10/27 04:56:57;;;;;;;0.52;0.38;;;12.60;99.90;;;;;;4165027;28;20283;-91
2023/10/27 04:58:58;;;;;;;1.55;0.70;;;12.60;99.90;;;;;;4148666;28;20173;-91
2023/10/27 05:00:59;;;;;;;4.20;0.63;;;12.60;99.90;;;;;;4148053;28;20263;-90
2023/10/27 05:03:00;;;;;;;0.40;0.30;;;12.60;99.90;;;;;;4148601;28;20173;-90
2023/10/27 05:05:00;;;;;;;3.42;0.63;;;12.60;99.90;;;;;;4148684;28;20161;-90
2023/10/27 05:07:03;;;;;;;2.25;0.68;;;12.70;99.90;;;;;;4164946;28;20216;-90
2023/10/27 05:09:04;;;;;;;3.20;1.13;;;12.80;99.90;;;;;;4148617;28;20203;-90
2023/10/27 05:11:05;;;;;;;0.93;0.50;;;12.70;99.90;;;;;;4148757;28;20196;-91
2023/10/27 05:13:06;;;;;;;2.15;0.70;;;12.60;99.90;;;;;;4164728;28;20211;-90
2023/10/27 05:15:07;;;;;;;3.17;0.55;;;12.70;99.90;;;;;;4148230;28;20188;-90
2023/10/27 05:17:08;;;;;;;1.55;0.55;;;12.60;99.90;;;;;;4148055;28;20200;-90
2023/10/27 05:19:09;;;;;;;2.97;1.00;;;12.60;99.90;;;;;;4148436;28;20246;-91
2023/10/27 05:21:16;;;;;;;0.98;0.68;;;12.70;99.90;;;;;;4148382;28;20172;-90
2023/10/27 05:23:17;;;;;;;3.63;1.27;;;12.70;99.90;;;;;;4164675;28;20164;-90
2023/10/27 05:25:17;;;;;;;0.80;0.63;;;12.60;99.90;;;;;;4164744;28;20169;-90
2023/10/27 05:27:18;;;;;;;1.40;0.90;;;12.70;99.90;;;;;;4148156;28;20283;-91
2023/10/27 05:29:19;;;;;;;7.60;1.60;;;12.70;99.90;;;;;;4148363;28;20165;-90
2023/10/27 05:31:20;;;;;;;5.30;1.73;;;12.60;99.90;;;;;;4148465;28;20180;-90
2023/10/27 05:33:21;;;;;;;2.85;1.00;;;12.50;99.90;;;;;;4148284;28;20169;-90
2023/10/27 05:35:21;;;;;;;2.97;0.75;;;12.50;99.90;;;;;;4164397;28;20172;-91
2023/10/27 05:37:22;;;;;;;2.78;1.13;;;12.40;99.90;;;;;;4148074;28;20196;-91
2023/10/27 05:39:26;;;;;;;3.53;1.38;;;12.40;99.90;;;;;;4148372;28;20172;-91
2023/10/27 05:41:27;;;;;;;3.70;1.40;;;12.40;99.90;;;;;;4164774;28;20255;-92
2023/10/27 05:43:28;;;;;;;3.40;1.30;;;12.40;99.90;;;;;;4164478;28;20199;-91
2023/10/27 05:45:28;;;;;;;4.18;1.85;;;12.30;99.90;;;;;;4148287;28;20176;-90
2023/10/27 05:47:30;;;;;;;1.73;1.13;;;12.30;99.90;;;;;;4164362;28;20222;-90
2023/10/27 05:49:30;;;;;;;2.92;1.25;;;12.30;99.90;;;;;;4148234;28;20176;-90
2023/10/27 05:51:33;;;;;;;5.70;1.33;;;12.30;99.90;;;;;;4148108;28;20177;-91
2023/10/27 05:53:34;;;;;;;6.63;2.70;;;12.30;99.90;;;;;;4164358;28;20259;-90
2023/10/27 05:55:35;;;;;;;16.65;8.57;;;12.20;99.90;;;;;;4164435;28;20183;-91
2023/10/27 05:57:35;;;;;;;3.53;2.10;;;12.10;99.90;;;;;;4164430;28;20231;-91
2023/10/27 05:59:36;;;;;;;4.95;3.35;;;12.20;99.90;;;;;;4148110;28;20177;-90
2023/10/27 06:01:37;;;;;;;1.10;0.98;;;12.10;99.90;;;;;;4147936;28;20498;-90
2023/10/27 06:03:38;;;;;;;3.20;1.20;;;12.20;99.90;;;;;;4148332;28;20206;-91
2023/10/27 06:05:39;;;;;;;5.65;1.65;;;12.20;99.90;;;;;;4148042;28;20207;-90
2023/10/27 06:07:39;;;;;;;3.90;1.20;;;12.20;99.90;;;;;;4164259;28;20286;-90
2023/10/27 06:09:40;;;;;;;2.53;0.90;;;12.10;99.90;;;;;;4147713;28;20514;-91
2023/10/27 06:11:41;;;;;;;3.53;0.75;;;12.10;99.90;;;;;;4149140;28;20208;-91
2023/10/27 06:13:42;;;;;;;19.10;7.97;;;12.10;99.90;;;;;;4151391;28;20195;-91
2023/10/27 06:15:43;;;;;;;3.40;1.67;;;12.10;99.90;;;;;;4151383;28;20173;-90
2023/10/27 06:17:43;;;;;;;4.57;1.30;;;12.10;99.90;;;;;;4151288;28;20664;-91
2023/10/27 06:19:44;;;;;;;1.58;0.80;;;12.10;99.90;;;;;;4167110;28;20184;-90
2023/10/27 06:21:47;;;;;;;3.08;1.55;;;12.00;99.90;;;;;;4151191;28;20665;-90
2023/10/27 06:23:48;;;;;;;2.83;1.40;;;12.10;99.90;;;;;;4150911;28;20173;-90
2023/10/27 06:25:48;;;;;;;3.80;1.88;;;12.10;99.90;;;;;;4167284;28;20176;-91
2023/10/27 06:27:49;;;;;;;10.00;1.80;;;12.10;99.90;;;;;;4150607;28;20239;-89
2023/10/27 06:29:50;;;;;;;4.68;1.63;;;12.10;99.90;;;;;;4150457;28;20681;-90
2023/10/27 06:31:51;;;;;;;2.17;1.35;;;12.00;99.90;;;;;;4150609;28;20212;-92
2023/10/27 06:33:51;;;;;;;3.53;1.85;;;12.00;99.90;;;;;;4167229;28;20259;-91
2023/10/27 06:35:54;;;;;;;4.22;1.58;;;12.00;99.90;;;;;;4150924;28;20176;-89
2023/10/27 06:37:55;;;;;;;3.05;1.60;;;12.00;99.90;;;;;;4150683;28;20267;-91
2023/10/27 06:39:58;;;;;;;5.38;3.58;;;12.10;99.90;;;;;;4166760;28;20238;-91
2023/10/27 06:41:59;;;;;;;7.47;2.80;;;12.10;99.90;;;;;;4150397;28;20207;-92
2023/10/27 06:44:01;;;;;;;10.77;4.78;;;12.10;99.90;;;;;;4150128;28;20556;-90
2023/10/27 06:46:02;;;;;;;5.05;1.98;;;12.00;99.90;;;;;;4150872;28;20188;-89
2023/10/27 06:48:03;;;;;;;3.17;1.95;;;12.00;99.90;;;;;;4150414;28;20201;-90
2023/10/27 06:50:04;;;;;;;5.53;2.85;;;12.10;99.90;;;;;;4150541;28;20169;-91
2023/10/27 06:52:05;;;;;;;3.95;2.20;;;12.10;99.90;;;;;;4150416;28;20307;-90
2023/10/27 06:54:06;;;;;;;5.22;1.52;;;12.10;99.90;;;;;;4166782;28;20176;-91
2023/10/27 06:56:07;;;;;;;2.63;1.40;;;12.20;99.90;;;;;;4150345;28;20165;-89
2023/10/27 06:58:08;;;;;;;1.88;1.20;;;12.30;99.90;;;;;;4166544;28;20195;-90
2023/10/27 07:00:09;;;;;;;7.95;2.03;;;12.40;99.90;;;;;;4150485;28;20184;-90
2023/10/27 07:02:10;;;;;;;4.30;1.83;;;12.50;99.90;;;;;;4149990;28;20177;-90
2023/10/27 07:04:13;;;;;;;2.72;1.70;;;12.40;99.90;;;;;;4150821;28;20187;-89
2023/10/27 07:06:14;;;;;;;6.15;1.35;;;12.40;99.90;;;;;;4152229;28;20534;-90
2023/10/27 07:08:14;;;;;;;3.95;1.05;;;12.40;99.90;;;;;;4166513;28;20196;-91
2023/10/27 07:10:16;;;;;;;4.93;1.20;;;12.50;99.90;;;;;;4165965;28;20633;-91
2023/10/27 07:12:16;;;;;;;4.38;1.40;;;12.40;99.90;;;;;;4151335;28;20254;-91
2023/10/27 07:14:17;;;;;;;3.97;1.20;;;12.40;99.90;;;;;;4166623;28;20176;-91
2023/10/27 07:16:18;;;;;;;1.70;1.05;;;12.60;99.90;;;;;;4150249;28;20176;-91
2023/10/27 07:18:19;;;;;;;4.28;1.17;;;12.60;99.90;;;;;;4166378;28;20330;-90
2023/10/27 07:20:20;;;;;;;6.75;1.02;;;12.60;99.90;;;;;;4150215;28;20177;-90
2023/10/27 07:22:21;;;;;;;3.40;1.17;;;12.60;99.90;;;;;;4150262;28;20171;-90
2023/10/27 07:24:22;;;;;;;2.08;0.85;;;12.60;99.90;;;;;;4149359;28;20180;-91
2023/10/27 07:26:22;;;;;;;3.97;0.98;;;12.60;99.90;;;;;;4149936;28;20291;-89
2023/10/27 07:28:24;;;;;;;1.80;0.75;;;12.70;99.90;;;;;;4150025;28;20287;-90
2023/10/27 07:30:25;;;;;;;2.72;1.13;;;12.60;99.90;;;;;;4166961;28;20167;-92
2023/10/27 07:32:25;;;;;;;5.22;1.17;;;12.70;99.90;;;;;;4166515;28;20294;-90
2023/10/27 07:34:26;;;;;;;4.28;0.93;;;12.60;99.90;;;;;;4166238;28;20172;-91
2023/10/27 07:36:27;;;;;;;2.72;0.63;;;12.50;99.90;;;;;;4149937;28;20173;-90
2023/10/27 07:38:28;;;;;;;1.95;1.27;;;12.50;99.90;;;;;;4149813;28;20203;-91
2023/10/27 07:40:30;;;;;;;3.35;0.90;;;12.60;99.90;;;;;;4149820;28;20181;-90
2023/10/27 07:42:32;;;;;;;1.27;0.75;;;12.70;99.90;;;;;;4166239;28;20152;-90
2023/10/27 07:44:33;;;;;;;2.15;0.77;;;12.90;99.90;;;;;;4149440;28;20204;-92
2023/10/27 07:46:33;;;;;;;1.85;0.82;;;13.00;99.90;;;;;;4165962;28;20532;-90
2023/10/27 07:48:34;;;;;;;1.95;1.02;;;13.00;99.90;;;;;;4149679;28;20177;-91
2023/10/27 07:50:35;;;;;;;1.50;0.68;;;12.80;99.90;;;;;;4166168;28;20172;-90
2023/10/27 07:52:36;;;;;;;6.13;1.20;;;12.80;99.90;;;;;;4149294;28;20219;-90
2023/10/27 07:54:37;;;;;;;1.88;0.70;;;12.90;99.90;;;;;;4166029;28;20656;-90
2023/10/27 07:56:38;;;;;;;3.90;1.50;;;12.70;99.90;;;;;;4149500;28;20180;-91
2023/10/27 07:58:39;;;;;;;1.88;0.73;;;12.90;99.90;;;;;;4149481;28;20169;-90
2023/10/27 08:00:40;;;;;;;4.25;1.08;;;13.10;99.90;;;;;;4166383;28;20191;-91
2023/10/27 08:02:41;;;;;;;4.32;1.65;;;13.00;99.90;;;;;;4149649;28;20172;-90
2023/10/27 08:04:41;;;;;;;2.58;1.00;;;13.00;99.90;;;;;;4165842;28;20211;-91
2023/10/27 08:06:43;;;;;;;4.93;1.20;;;13.00;99.90;;;;;;4149237;28;20708;-90
2023/10/27 08:08:44;;;;;;;4.30;1.83;;;12.90;99.90;;;;;;4149326;28;20213;-89
2023/10/27 08:10:46;;;;;;;5.25;1.73;;;13.00;99.90;;;;;;4149336;28;20219;-91
2023/10/27 08:12:47;;;;;;;7.85;2.30;;;13.20;99.90;;;;;;4149265;28;20222;-90
2023/10/27 08:14:48;;;;;;;3.97;1.85;;;13.30;99.90;;;;;;4165486;28;20648;-90
2023/10/27 08:16:49;;;;;;;3.35;1.55;;;13.30;99.90;;;;;;4149029;28;20268;-91
2023/10/27 08:18:50;;;;;;;2.92;1.48;;;13.30;99.90;;;;;;4149350;28;20180;-92
2023/10/27 08:20:52;;;;;;;3.28;1.65;;;13.50;99.90;;;;;;4165489;28;20177;-90
2023/10/27 08:22:53;;;;;;;6.85;1.17;;;13.50;99.90;;;;;;4149098;28;20173;-91
2023/10/27 08:24:54;;;;;;;11.32;1.92;;;13.70;99.90;;;;;;4165378;28;20518;-91
2023/10/27 08:26:54;;;;;;;3.63;2.22;;;13.80;99.90;;;;;;4149056;28;20201;-90
2023/10/27 08:28:55;;;;;;;3.33;2.13;;;13.90;99.90;;;;;;4148922;28;20180;-91
2023/10/27 08:30:56;;;;;;;4.20;1.40;;;13.80;99.90;;;;;;4148993;28;20184;-91
2023/10/27 08:32:57;;;;;;;6.43;1.60;;;13.80;99.90;;;;;;4149065;28;20216;-92
2023/10/27 08:34:58;;;;;;;4.18;1.70;;;13.90;99.90;;;;;;4148098;28;20165;-91
2023/10/27 08:36:58;;;;;;;7.95;1.63;;;14.00;99.90;;;;;;4164882;28;20200;-92
2023/10/27 08:39:00;;;;;;;5.90;1.90;;;14.10;99.90;;;;;;4149158;28;20176;-92
2023/10/27 08:41:01;;;;;;;5.10;1.90;;;14.00;99.90;;;;;;4148758;28;20185;-91
2023/10/27 08:43:03;;;;;;;6.72;2.08;;;14.10;99.90;;;;;;4148814;28;20529;-90
2023/10/27 08:45:05;;;;;;;3.10;1.65;;;14.00;99.90;;;;;;4165278;28;20187;-91
2023/10/27 08:47:06;;;;;;;4.57;1.98;;;14.00;99.90;;;;;;4148582;28;20601;-90
2023/10/27 08:49:08;;;;;;;4.22;1.85;;;13.90;99.90;;;;;;4165090;28;20286;-91
2023/10/27 08:51:11;;;;;;;6.93;2.00;;;13.70;99.90;;;;;;4165013;28;20167;-91
2023/10/27 08:53:12;;;;;;;11.50;1.77;;;13.70;99.90;;;;;;4164804;28;20653;-90
2023/10/27 08:55:13;;;;;;;5.63;1.70;;;13.60;99.90;;;;;;4164987;28;20172;-91
2023/10/27 08:57:13;;;;;;;9.43;1.30;;;13.50;99.90;;;;;;4148712;28;20203;-90
2023/10/27 08:59:14;;;;;;;6.20;1.85;;;13.60;99.90;;;;;;4148643;28;20199;-91
2023/10/27 09:01:15;;;;;;;5.40;1.98;;;13.60;99.90;;;;;;4148737;28;20239;-91
2023/10/27 09:03:17;;;;;;;5.40;1.92;;;13.60;99.90;;;;;;4148734;28;20628;-91
2023/10/27 09:05:17;;;;;;;4.95;1.73;;;13.70;99.90;;;;;;4148300;28;20177;-90
2023/10/27 09:07:18;;;;;;;3.67;1.77;;;13.60;99.90;;;;;;4148483;28;20809;-91
2023/10/27 09:09:20;;;;;;;6.60;1.42;;;13.60;99.90;;;;;;4148507;28;20192;-91
2023/10/27 09:11:21;;;;;;;1.95;1.35;;;13.40;99.90;;;;;;4148352;28;20184;-91
2023/10/27 09:13:23;;;;;;;5.28;1.90;;;13.40;99.90;;;;;;4148752;28;20288;-90
2023/10/27 09:15:24;;;;;;;2.60;1.50;;;13.30;99.90;;;;;;4148570;28;20169;-91
2023/10/27 09:17:25;;;;;;;6.50;1.90;;;13.20;99.90;;;;;;4164399;28;20250;-90
2023/10/27 09:19:26;;;;;;;4.25;1.40;;;13.20;99.90;;;;;;4164632;28;20537;-90
2023/10/27 09:21:30;;;;;;;3.17;1.00;;;13.10;99.90;;;;;;4148480;28;20648;-90
2023/10/27 09:23:44;;;;;;;3.20;1.67;;;13.20;99.90;;;;;;4148266;28;20179;-91
2023/10/27 09:25:46;;;;;;;6.68;1.25;;;13.20;99.90;;;;;;4148411;28;20271;-90
2023/10/27 09:27:49;;;;;;;4.20;1.42;;;13.40;99.90;;;;;;4167915;28;20187;-91
2023/10/27 09:29:51;;;;;;;4.72;1.88;;;13.40;99.90;;;;;;4159001;28;20189;-90
2023/10/27 09:31:52;;;;;;;2.70;1.45;;;13.40;99.90;;;;;;4169110;28;20204;-89
2023/10/27 09:33:53;;;;;;;3.40;1.15;;;13.40;99.90;;;;;;4168057;28;20184;-90
2023/10/27 09:35:54;;;;;;;3.92;1.20;;;13.40;99.90;;;;;;4148774;28;20166;-90
2023/10/27 09:37:55;;;;;;;4.93;1.67;;;13.20;99.90;;;;;;4164730;28;20346;-90
2023/10/27 09:39:56;;;;;;;2.10;1.02;;;13.20;99.90;;;;;;4148510;28;20175;-90
2023/10/27 09:42:01;;;;;;;2.65;1.33;;;13.30;99.90;;;;;;4148404;28;20255;-89
2023/10/27 09:44:02;;;;;;;4.47;1.17;;;13.40;99.90;;;;;;4148546;28;20247;-91
2023/10/27 09:46:07;;;;;;;3.47;1.77;;;13.30;99.90;;;;;;4148683;28;20177;-91
2023/10/27 09:48:09;;;;;;;7.32;1.30;;;13.30;99.90;;;;;;4151516;28;20196;-90
2023/10/27 09:50:14;;;;;;;8.32;1.50;;;13.50;99.90;;;;;;4151850;28;20704;-91
2023/10/27 09:52:20;;;;;;;2.78;1.23;;;13.60;99.90;;;;;;4151286;28;20208;-90
2023/10/27 09:54:21;;;;;;;3.78;1.05;;;13.70;99.90;;;;;;4151171;28;20553;-90
2023/10/27 09:56:23;;;;;;;1.88;0.93;;;13.90;99.90;;;;;;4151382;28;20173;-90
2023/10/27 09:58:27;;;;;;;3.65;1.40;;;13.90;99.90;;;;;;4151261;28;20203;-90
2023/10/27 10:00:31;;;;;;;1.60;0.90;;;13.80;99.90;;;;;;4151127;28;20173;-90
2023/10/27 10:02:32;;;;;;;2.17;1.02;;;13.70;99.90;;;;;;4151314;28;20267;-90
2023/10/27 10:04:51;;;;;;;6.97;1.55;;;13.80;99.90;;;;;;4167328;28;20172;-90
2023/10/27 10:06:51;;;;;;;8.88;1.23;;;13.80;99.90;;;;;;4150999;28;20544;-90
2023/10/27 10:09:09;;;;;;;3.45;1.52;;;14.00;99.90;;;;;;4151171;28;20172;-89
2023/10/27 10:11:18;;;;;;;3.75;1.05;;;14.00;99.90;;;;;;4150939;28;20187;-91
2023/10/27 10:13:36;;;;;;;10.55;1.92;;;14.10;99.90;;;;;;4150978;28;20224;-91
2023/10/27 10:15:39;;;;;;;3.47;0.80;;;14.00;99.90;;;;;;4151208;28;20243;-90
2023/10/27 10:17:40;;;;;;;7.15;1.48;;;13.90;99.90;;;;;;4150885;28;20211;-90
2023/10/27 10:19:51;;;;;;;6.30;0.70;;;13.80;99.90;;;;;;4151056;28;20246;-91
2023/10/27 10:21:52;;;;;;;6.18;1.20;;;13.90;99.90;;;;;;4151096;28;20179;-90
2023/10/27 10:24:04;;;;;;;3.30;0.93;;;14.00;99.90;;;;;;4167398;28;20208;-91
2023/10/27 10:26:06;;;;;;;1.23;0.70;;;14.10;99.90;;;;;;4151092;28;20169;-91
2023/10/27 10:28:09;;;;;;;1.92;0.82;;;14.00;99.90;;;;;;4150731;28;20207;-91
2023/10/27 10:30:28;;;;;;;4.32;1.02;;;14.10;99.90;;;;;;4150830;28;20202;-91
2023/10/27 10:32:30;;;;;;;0.80;0.60;;;13.80;99.90;;;;;;4150892;28;20209;-91